createdAt,value
2022-08-17T00:00:16.569Z,99615.66
2022-08-17T00:02:57.768Z,99620.28
2022-08-17T00:05:25.034Z,99611.44
2022-08-17T00:07:52.122Z,99615.91
2022-08-17T00:10:19.394Z,99614.97
2022-08-17T00:12:46.766Z,99610.59
2022-08-17T00:15:15.508Z,99602.03
2022-08-17T00:17:47.772Z,99603.84
2022-08-17T00:20:15.875Z,99610.09
2022-08-17T00:22:45.664Z,99602.44
2022-08-17T00:25:17.172Z,99611.28
2022-08-17T00:27:44.267Z,99605.31
2022-08-17T00:30:12.776Z,99594.97
2022-08-17T00:33:13.721Z,99608.59
2022-08-17T00:35:34.939Z,99612.97
2022-08-17T00:38:04.280Z,99605.84
2022-08-17T00:40:44.220Z,99603.25
2022-08-17T00:43:15.064Z,99616.41
2022-08-17T00:45:42.466Z,99596.47
2022-08-17T00:48:29.531Z,99603.41
2022-08-17T00:51:07.413Z,99600.84
2022-08-17T00:53:38.991Z,99591.34
2022-08-17T00:56:10.916Z,99594.81
2022-08-17T00:58:41.245Z,99599.91
2022-08-17T01:01:09.947Z,99588.56
2022-08-17T01:03:38.895Z,99602.56
2022-08-17T01:06:08.268Z,99588.06
2022-08-17T01:08:36.662Z,99576.72
2022-08-17T01:11:05.526Z,99596.69
2022-08-17T01:13:40.718Z,99591.34
2022-08-17T01:16:25.570Z,99588.44
2022-08-17T01:19:02.473Z,99584.94
2022-08-17T01:22:00.654Z,99585.72
2022-08-17T01:24:27.833Z,99563.16
2022-08-17T01:26:56.664Z,99575.13
2022-08-17T01:29:26.020Z,99578.13
2022-08-17T01:31:58.768Z,99569.38
2022-08-17T01:34:31.569Z,99582.59
2022-08-17T01:37:13.235Z,99586.22
2022-08-17T01:39:58.274Z,99561.22
2022-08-17T01:42:38.305Z,99581.09
2022-08-17T01:45:12.461Z,99578.44
2022-08-17T01:47:40.995Z,99580.31
2022-08-17T01:50:16.368Z,99583.06
2022-08-17T01:52:49.576Z,99580.41
2022-08-17T01:55:27.291Z,99579.69
2022-08-17T01:57:55.669Z,99580.56
2022-08-17T02:00:24.073Z,99580.56
2022-08-17T02:02:53.053Z,99579.75
2022-08-17T02:05:20.752Z,99578.84
2022-08-17T02:08:00.645Z,99581.81
2022-08-17T02:10:34.109Z,99573.97
2022-08-17T02:13:03.963Z,99579.28
2022-08-17T02:15:35.403Z,99576.72
2022-08-17T02:18:05.627Z,99581.25
2022-08-17T02:20:42.126Z,99577.66
2022-08-17T02:23:13.203Z,99579.53
2022-08-17T02:25:43.539Z,99579.38
2022-08-17T02:28:11.331Z,99585.50
2022-08-17T02:31:01.410Z,99582.84
2022-08-17T02:33:41.629Z,99579.28
2022-08-17T02:36:09.791Z,99584.94
2022-08-17T02:38:38.462Z,99578.22
2022-08-17T02:41:08.803Z,99583.72
2022-08-17T02:43:45.462Z,99588.16
2022-08-17T02:46:14.791Z,99581.09
2022-08-17T02:48:41.906Z,99577.84
2022-08-17T02:51:09.331Z,99584.28
2022-08-17T02:53:36.450Z,99576.88
2022-08-17T02:56:04.383Z,99578.50
2022-08-17T02:58:35.331Z,99584.13
2022-08-17T03:01:06.247Z,99567.25
2022-08-17T03:03:33.757Z,99571.25
2022-08-17T03:06:01.538Z,99563.97
2022-08-17T03:08:30.971Z,99560.59
2022-08-17T03:10:58.025Z,99576.66
2022-08-17T03:13:25.215Z,99568.88
2022-08-17T03:15:52.348Z,99560.78
2022-08-17T03:18:25.435Z,99586.56
2022-08-17T03:20:58.693Z,99580.25
2022-08-17T03:23:29.627Z,99562.94
2022-08-17T03:25:58.484Z,99582.19
2022-08-17T03:28:25.850Z,99570.47
2022-08-17T03:30:53.157Z,99572.31
2022-08-17T03:33:20.823Z,99576.81
2022-08-17T03:35:48.450Z,99572.88
2022-08-17T03:38:17.476Z,99568.16
2022-08-17T03:40:56.753Z,99565.84
2022-08-17T03:43:29.829Z,99578.91
2022-08-17T03:46:34.066Z,99574.06
2022-08-17T03:49:26.868Z,99561.06
2022-08-17T03:52:13.791Z,99563.13
2022-08-17T03:55:00.909Z,99577.03
2022-08-17T03:57:29.280Z,99561.72
2022-08-17T03:59:57.751Z,99567.38
2022-08-17T04:02:29.307Z,99568.84
2022-08-17T04:04:56.979Z,99585.44
2022-08-17T04:07:26.027Z,99585.72
2022-08-17T04:09:53.341Z,99579.63
2022-08-17T04:12:22.144Z,99578.06
2022-08-17T04:14:53.070Z,99585.84
2022-08-17T04:17:24.875Z,99567.59
2022-08-17T04:19:52.431Z,99572.25
2022-08-17T04:22:30.152Z,99570.13
2022-08-17T04:25:09.705Z,99569.44
2022-08-17T04:27:37.998Z,99564.38
2022-08-17T04:30:07.439Z,99565.53
2022-08-17T04:33:06.358Z,99561.84
2022-08-17T04:35:44.163Z,99561.53
2022-08-17T04:38:14.706Z,99568.34
2022-08-17T04:41:01.825Z,99551.09
2022-08-17T04:43:31.071Z,99551.50
2022-08-17T04:46:04.899Z,99565.22
2022-08-17T04:48:37.995Z,99572.69
2022-08-17T04:51:10.197Z,99561.13
2022-08-17T04:53:39.656Z,99557.13
2022-08-17T04:56:16.616Z,99563.19
2022-08-17T04:58:50.160Z,99547.31
2022-08-17T05:01:24.065Z,99552.66
2022-08-17T05:03:57.295Z,99545.28
2022-08-17T05:06:24.706Z,99552.59
2022-08-17T05:08:52.363Z,99551.59
2022-08-17T05:11:19.620Z,99551.66
2022-08-17T05:13:50.206Z,99557.75
2022-08-17T05:16:18.696Z,99545.00
2022-08-17T05:18:46.223Z,99558.09
2022-08-17T05:21:14.972Z,99546.25
2022-08-17T05:23:47.156Z,99548.78
2022-08-17T05:26:26.773Z,99542.66
2022-08-17T05:29:00.578Z,99538.84
2022-08-17T05:31:31.218Z,99540.22
2022-08-17T05:33:59.129Z,99534.34
2022-08-17T05:36:43.414Z,99535.31
2022-08-17T05:39:16.249Z,99554.78
2022-08-17T05:41:47.299Z,99537.50
2022-08-17T05:44:16.584Z,99545.69
2022-08-17T05:46:49.131Z,99534.31
2022-08-17T05:49:21.194Z,99536.28
2022-08-17T05:51:55.550Z,99528.03
2022-08-17T05:54:53.883Z,99535.47
2022-08-17T05:57:56.052Z,99528.06
2022-08-17T06:00:26.461Z,99532.28
2022-08-17T06:03:12.997Z,99522.81
2022-08-17T06:06:00.199Z,99537.00
2022-08-17T06:08:56.876Z,99530.41
2022-08-17T06:11:43.681Z,99531.81
2022-08-17T06:14:31.697Z,99533.38
2022-08-17T06:17:13.572Z,99533.41
2022-08-17T06:20:14.365Z,99542.91
2022-08-17T06:22:46.362Z,99546.84
2022-08-17T06:25:32.237Z,99542.56
2022-08-17T06:28:08.723Z,99532.38
2022-08-17T06:30:59.855Z,99527.84
2022-08-17T06:33:35.282Z,99536.78
2022-08-17T06:36:24.992Z,99544.41
2022-08-17T06:39:25.104Z,99529.66
2022-08-17T06:42:07.532Z,99532.09
2022-08-17T06:44:54.003Z,99537.81
2022-08-17T06:47:31.173Z,99535.03
2022-08-17T06:50:04.279Z,99542.50
2022-08-17T06:52:46.906Z,99546.69
2022-08-17T06:55:24.816Z,99541.22
2022-08-17T06:57:58.222Z,99537.28
2022-08-17T07:00:37.010Z,99542.19
2022-08-17T07:03:23.787Z,99533.53
2022-08-17T07:06:12.597Z,99525.69
2022-08-17T07:09:03.558Z,99527.31
2022-08-17T07:11:38.575Z,99526.81
2022-08-17T07:14:38.583Z,99539.44
2022-08-17T07:17:18.563Z,99529.53
2022-08-17T07:19:49.422Z,99521.59
2022-08-17T07:22:50.357Z,99527.13
2022-08-17T07:25:23.547Z,99529.84
2022-08-17T07:27:56.342Z,99516.53
2022-08-17T07:30:27.111Z,99525.44
2022-08-17T07:32:59.447Z,99513.91
2022-08-17T07:35:37.762Z,99526.72
2022-08-17T07:38:26.796Z,99506.44
2022-08-17T07:41:04.871Z,99507.34
2022-08-17T07:43:37.701Z,99507.69
2022-08-17T07:46:30.086Z,99498.50
2022-08-17T07:49:03.634Z,99506.75
2022-08-17T07:51:34.000Z,99511.03
2022-08-17T07:54:22.711Z,99498.78
2022-08-17T07:57:04.449Z,99512.06
2022-08-17T07:59:36.795Z,99500.19
2022-08-17T08:02:38.409Z,99513.13
2022-08-17T08:05:13.002Z,99497.38
2022-08-17T08:07:56.545Z,99501.03
2022-08-17T08:10:36.872Z,99507.81
2022-08-17T08:13:23.935Z,99517.22
2022-08-17T08:15:55.862Z,99503.34
2022-08-17T08:18:38.673Z,99508.03
2022-08-17T08:21:42.235Z,99502.41
2022-08-17T08:24:30.148Z,99497.75
2022-08-17T08:27:36.858Z,99492.78
2022-08-17T08:30:16.538Z,99490.84
2022-08-17T08:33:07.757Z,99497.78
2022-08-17T08:35:34.774Z,99509.00
2022-08-17T08:38:16.967Z,99504.19
2022-08-17T08:41:01.565Z,99493.97
2022-08-17T08:43:43.887Z,99499.97
2022-08-17T08:46:29.326Z,99494.13
2022-08-17T08:50:09.236Z,99488.31
2022-08-17T08:53:10.223Z,99478.75
2022-08-17T08:56:00.554Z,99502.34
2022-08-17T08:58:54.041Z,99500.09
2022-08-17T09:01:38.268Z,99499.50
2022-08-17T09:04:26.533Z,99498.53
2022-08-17T09:07:22.432Z,99481.63
2022-08-17T09:09:59.654Z,99477.09
2022-08-17T09:12:48.950Z,99487.88
2022-08-17T09:15:35.069Z,99483.78
2022-08-17T09:19:00.068Z,99468.53
2022-08-17T09:21:07.984Z,99486.28
2022-08-17T09:23:59.645Z,99487.03
2022-08-17T09:26:35.326Z,99478.78
2022-08-17T09:29:08.775Z,99477.22
2022-08-17T09:31:48.951Z,99489.16
2022-08-17T09:34:29.579Z,99491.28
2022-08-17T09:37:03.641Z,99487.72
2022-08-17T09:39:41.816Z,99484.78
2022-08-17T09:42:32.423Z,99480.75
2022-08-17T09:45:23.818Z,99478.22
2022-08-17T09:48:05.081Z,99476.78
2022-08-17T09:51:03.771Z,99480.06
2022-08-17T09:53:32.257Z,99492.41
2022-08-17T09:56:27.755Z,99474.50
2022-08-17T09:59:38.710Z,99476.22
2022-08-17T10:02:45.043Z,99476.88
2022-08-17T10:05:49.542Z,99471.06
2022-08-17T10:09:09.057Z,99476.78
2022-08-17T10:12:04.645Z,99474.19
2022-08-17T10:15:09.899Z,99468.09
2022-08-17T10:18:03.839Z,99464.38
2022-08-17T10:21:21.727Z,99462.19
2022-08-17T10:24:13.390Z,99457.25
2022-08-17T10:26:56.044Z,99456.09
2022-08-17T10:29:49.254Z,99446.94
2022-08-17T10:32:32.988Z,99453.25
2022-08-17T10:35:26.131Z,99460.59
2022-08-17T10:37:56.147Z,99452.91
2022-08-17T10:40:45.606Z,99457.44
2022-08-17T10:43:15.613Z,99445.31
2022-08-17T10:46:30.043Z,99434.16
2022-08-17T10:49:23.899Z,99450.97
2022-08-17T10:51:57.113Z,99456.09
2022-08-17T10:54:39.214Z,99456.22
2022-08-17T10:57:28.402Z,99434.78
2022-08-17T10:59:57.069Z,99445.28
2022-08-17T11:02:40.849Z,99443.88
2022-08-17T11:05:20.671Z,99438.03
2022-08-17T11:08:26.568Z,99446.81
2022-08-17T11:10:59.031Z,99438.31
2022-08-17T11:13:38.356Z,99441.56
2022-08-17T11:16:33.336Z,99432.78
2022-08-17T11:19:30.825Z,99427.34
2022-08-17T11:22:31.311Z,99428.38
2022-08-17T11:25:35.799Z,99423.16
2022-08-17T11:28:25.071Z,99423.97
2022-08-17T11:30:59.721Z,99430.06
2022-08-17T11:33:30.325Z,99430.06
2022-08-17T11:36:18.222Z,99425.16
2022-08-17T11:38:46.354Z,99437.63
2022-08-17T11:41:16.427Z,99423.41
2022-08-17T11:44:04.880Z,99411.31
2022-08-17T11:47:08.868Z,99420.50
2022-08-17T11:50:00.593Z,99412.38
2022-08-17T11:52:45.948Z,99409.91
2022-08-17T11:55:41.766Z,99392.88
2022-08-17T11:58:29.494Z,99401.22
2022-08-17T12:00:59.027Z,99389.00
2022-08-17T12:03:55.392Z,99382.72
2022-08-17T12:06:54.989Z,99399.72
2022-08-17T12:09:26.491Z,99382.31
2022-08-17T12:12:12.962Z,99402.38
2022-08-17T12:15:09.542Z,99361.38
2022-08-17T12:17:40.815Z,99377.53
2022-08-17T12:20:24.201Z,99374.78
2022-08-17T12:23:04.984Z,99385.41
2022-08-17T12:25:47.552Z,99381.91
2022-08-17T12:28:30.588Z,99382.75
2022-08-17T12:31:02.577Z,99366.72
2022-08-17T12:33:30.491Z,99372.94
2022-08-17T12:36:04.645Z,99376.69
2022-08-17T12:38:35.220Z,99350.34
2022-08-17T12:41:29.295Z,99386.38
2022-08-17T12:44:31.068Z,99377.16
2022-08-17T12:47:21.064Z,99375.75
2022-08-17T12:49:51.733Z,99370.13
2022-08-17T12:52:24.892Z,99373.94
2022-08-17T12:54:57.477Z,99375.94
2022-08-17T12:57:33.235Z,99375.72
2022-08-17T13:00:26.152Z,99370.88
2022-08-17T13:03:07.819Z,99366.59
2022-08-17T13:05:41.990Z,99382.81
2022-08-17T13:08:24.733Z,99367.59
2022-08-17T13:11:24.340Z,99382.69
2022-08-17T13:13:55.276Z,99372.78
2022-08-17T13:16:30.900Z,99373.38
2022-08-17T13:19:03.789Z,99369.25
2022-08-17T13:21:33.335Z,99354.22
2022-08-17T13:24:13.920Z,99376.94
2022-08-17T13:27:08.182Z,99364.75
2022-08-17T13:29:44.625Z,99371.88
2022-08-17T13:32:13.702Z,99361.63
2022-08-17T13:34:51.384Z,99374.59
2022-08-17T13:37:36.282Z,99373.84
2022-08-17T13:40:09.351Z,99368.03
2022-08-17T13:42:52.454Z,99373.19
2022-08-17T13:45:36.886Z,99373.44
2022-08-17T13:48:14.549Z,99367.47
2022-08-17T13:50:56.731Z,99368.47
2022-08-17T13:53:33.118Z,99379.28
2022-08-17T13:56:38.056Z,99371.03
2022-08-17T13:59:06.687Z,99366.75
2022-08-17T14:01:54.180Z,99357.53
2022-08-17T14:04:29.452Z,99351.59
2022-08-17T14:07:08.892Z,99366.06
2022-08-17T14:09:40.084Z,99358.53
2022-08-17T14:12:11.794Z,99364.19
2022-08-17T14:14:39.667Z,99370.59
2022-08-17T14:17:07.873Z,99353.72
2022-08-17T14:19:36.391Z,99358.53
2022-08-17T14:22:05.132Z,99358.81
2022-08-17T14:24:41.278Z,99351.44
2022-08-17T14:27:12.459Z,99355.00
2022-08-17T14:29:41.357Z,99338.50
2022-08-17T14:32:24.927Z,99341.94
2022-08-17T14:34:52.707Z,99339.94
2022-08-17T14:37:21.141Z,99353.00
2022-08-17T14:39:48.531Z,99350.31
2022-08-17T14:42:17.677Z,99350.63
2022-08-17T14:44:44.840Z,99333.56
2022-08-17T14:47:16.017Z,99350.19
2022-08-17T14:49:43.846Z,99351.00
2022-08-17T14:52:18.424Z,99350.31
2022-08-17T14:54:46.028Z,99350.06
2022-08-17T14:57:25.246Z,99339.06
2022-08-17T15:00:01.532Z,99346.03
2022-08-17T15:02:48.934Z,99328.81
2022-08-17T15:05:17.494Z,99358.81
2022-08-17T15:07:44.775Z,99348.28
2022-08-17T15:10:13.676Z,99347.00
2022-08-17T15:12:41.602Z,99344.13
2022-08-17T15:15:12.128Z,99352.50
2022-08-17T15:17:43.846Z,99349.38
2022-08-17T15:20:16.797Z,99348.22
2022-08-17T15:22:45.665Z,99344.50
2022-08-17T15:25:13.158Z,99346.50
2022-08-17T15:27:40.605Z,99336.28
2022-08-17T15:30:10.107Z,99340.31
2022-08-17T15:32:40.707Z,99327.94
2022-08-17T15:35:11.879Z,99339.28
2022-08-17T15:37:40.474Z,99335.88
2022-08-17T15:40:09.717Z,99345.09
2022-08-17T15:42:38.633Z,99335.28
2022-08-17T15:45:13.636Z,99345.50
2022-08-17T15:47:40.987Z,99342.50
2022-08-17T15:50:09.329Z,99329.16
2022-08-17T15:52:40.342Z,99342.31
2022-08-17T15:55:12.620Z,99340.88
2022-08-17T15:57:40.235Z,99340.00
2022-08-17T16:00:08.829Z,99345.50
2022-08-17T16:03:44.388Z,99347.88
2022-08-17T16:05:31.229Z,99346.44
2022-08-17T16:07:59.933Z,99346.06
2022-08-17T16:10:35.009Z,99344.03
2022-08-17T16:13:04.321Z,99344.72
2022-08-17T16:15:32.121Z,99346.19
2022-08-17T16:17:59.609Z,99347.88
2022-08-17T16:20:27.495Z,99345.94
2022-08-17T16:22:55.145Z,99347.56
2022-08-17T16:25:47.171Z,99343.81
2022-08-17T16:28:17.674Z,99342.13
2022-08-17T16:30:45.560Z,99329.81
2022-08-17T16:33:12.928Z,99350.97
2022-08-17T16:35:40.050Z,99354.88
2022-08-17T16:38:07.457Z,99350.00
2022-08-17T16:40:36.220Z,99353.91
2022-08-17T16:43:07.132Z,99355.16
2022-08-17T16:45:36.966Z,99354.78
2022-08-17T16:48:04.729Z,99351.50
2022-08-17T16:50:32.689Z,99350.03
2022-08-17T16:53:10.774Z,99358.25
2022-08-17T16:55:38.855Z,99363.97
2022-08-17T16:58:08.881Z,99356.16
2022-08-17T17:00:36.875Z,99356.19
2022-08-17T17:03:31.812Z,99368.88
2022-08-17T17:06:13.761Z,99368.38
2022-08-17T17:08:49.257Z,99376.31
2022-08-17T17:11:25.163Z,99370.22
2022-08-17T17:13:59.724Z,99372.63
2022-08-17T17:17:15.141Z,99371.19
2022-08-17T17:20:08.094Z,99377.97
2022-08-17T17:22:43.789Z,99373.56
2022-08-17T17:25:17.540Z,99374.91
2022-08-17T17:28:35.778Z,99372.59
2022-08-17T17:31:23.866Z,99363.31
2022-08-17T17:34:00.542Z,99372.09
2022-08-17T17:36:48.436Z,99370.59
2022-08-17T17:39:43.882Z,99358.16
2022-08-17T17:42:19.883Z,99356.81
2022-08-17T17:44:55.782Z,99361.44
2022-08-17T17:47:23.032Z,99358.84
2022-08-17T17:49:50.465Z,99358.34
2022-08-17T17:52:20.318Z,99362.31
2022-08-17T17:54:48.060Z,99345.00
2022-08-17T17:57:39.538Z,99355.50
2022-08-17T18:00:24.762Z,99349.00
2022-08-17T18:03:01.341Z,99346.78
2022-08-17T18:05:49.019Z,99353.34
2022-08-17T18:08:34.107Z,99349.31
2022-08-17T18:11:13.228Z,99350.50
2022-08-17T18:14:20.043Z,99350.00
2022-08-17T18:16:55.731Z,99335.34
2022-08-17T18:19:25.692Z,99341.56
2022-08-17T18:22:14.913Z,99335.78
2022-08-17T18:24:45.962Z,99339.91
2022-08-17T18:27:30.481Z,99332.38
2022-08-17T18:29:59.870Z,99343.34
2022-08-17T18:32:36.793Z,99343.66
2022-08-17T18:35:28.130Z,99342.06
2022-08-17T18:38:19.972Z,99348.97
2022-08-17T18:40:58.175Z,99339.03
2022-08-17T18:43:44.438Z,99331.66
2022-08-17T18:46:28.909Z,99346.22
2022-08-17T18:49:25.215Z,99351.03
2022-08-17T18:52:07.842Z,99346.66
2022-08-17T18:54:36.283Z,99336.50
2022-08-17T18:57:05.336Z,99321.94
2022-08-17T18:59:38.787Z,99344.81
2022-08-17T19:02:45.652Z,99350.06
2022-08-17T19:05:28.946Z,99331.78
2022-08-17T19:08:13.913Z,99344.81
2022-08-17T19:10:46.176Z,99346.03
2022-08-17T19:13:34.212Z,99343.22
2022-08-17T19:16:18.371Z,99353.09
2022-08-17T19:18:58.828Z,99344.19
2022-08-17T19:21:56.239Z,99341.31
2022-08-17T19:24:26.609Z,99345.34
2022-08-17T19:27:02.417Z,99349.72
2022-08-17T19:29:51.912Z,99350.81
2022-08-17T19:32:27.022Z,99354.69
2022-08-17T19:34:55.339Z,99353.81
2022-08-17T19:38:01.538Z,99357.38
2022-08-17T19:40:52.747Z,99349.66
2022-08-17T19:43:42.190Z,99352.03
2022-08-17T19:46:13.952Z,99355.16
2022-08-17T19:48:46.984Z,99353.53
2022-08-17T19:51:31.616Z,99351.28
2022-08-17T19:54:10.562Z,99347.44
2022-08-17T19:56:58.927Z,99346.03
2022-08-17T20:00:09.097Z,99352.78
2022-08-17T20:02:52.921Z,99349.56
2022-08-17T20:06:36.801Z,99356.09
2022-08-17T20:09:16.711Z,99353.84
2022-08-17T20:11:49.129Z,99353.50
2022-08-17T20:14:24.770Z,99352.66
2022-08-17T20:16:52.526Z,99360.81
2022-08-17T20:19:45.649Z,99353.06
2022-08-17T20:22:21.239Z,99363.66
2022-08-17T20:24:51.409Z,99368.19
2022-08-17T20:27:32.126Z,99366.56
2022-08-17T20:30:01.801Z,99371.78
2022-08-17T20:32:36.901Z,99355.50
2022-08-17T20:35:26.210Z,99374.69
2022-08-17T20:37:55.700Z,99367.63
2022-08-17T20:40:28.540Z,99360.88
2022-08-17T20:42:57.408Z,99375.84
2022-08-17T20:45:26.407Z,99381.31
2022-08-17T20:48:23.997Z,99376.91
2022-08-17T20:50:56.273Z,99378.38
2022-08-17T20:53:48.293Z,99381.28
2022-08-17T20:56:44.583Z,99386.09
2022-08-17T20:59:21.077Z,99388.19
2022-08-17T21:02:19.115Z,99392.25
2022-08-17T21:04:50.013Z,99391.47
2022-08-17T21:07:43.733Z,99392.72
2022-08-17T21:10:26.393Z,99389.59
2022-08-17T21:13:10.314Z,99391.72
2022-08-17T21:15:57.395Z,99390.00
2022-08-17T21:18:49.825Z,99382.38
2022-08-17T21:21:26.100Z,99391.38
2022-08-17T21:24:19.467Z,99396.16
2022-08-17T21:27:26.540Z,99381.56
2022-08-17T21:30:13.274Z,99389.66
2022-08-17T21:32:42.264Z,99391.97
2022-08-17T21:35:28.730Z,99390.16
2022-08-17T21:38:02.500Z,99383.78
2022-08-17T21:40:31.413Z,99389.03
2022-08-17T21:43:17.134Z,99387.91
2022-08-17T21:45:55.589Z,99378.94
2022-08-17T21:48:25.560Z,99374.72
2022-08-17T21:51:01.982Z,99386.19
2022-08-17T21:53:36.794Z,99390.16
2022-08-17T21:56:05.182Z,99388.44
2022-08-17T21:58:40.238Z,99393.22
2022-08-17T22:01:13.682Z,99394.16
2022-08-17T22:03:47.893Z,99398.16
2022-08-17T22:06:33.552Z,99402.56
2022-08-17T22:09:22.478Z,99398.47
2022-08-17T22:11:57.889Z,99404.84
2022-08-17T22:14:52.247Z,99395.38
2022-08-17T22:17:35.538Z,99400.72
2022-08-17T22:20:14.415Z,99398.41
2022-08-17T22:23:09.120Z,99406.34
2022-08-17T22:25:39.955Z,99404.03
2022-08-17T22:28:12.936Z,99408.63
2022-08-17T22:30:42.249Z,99406.41
2022-08-17T22:33:39.708Z,99408.50
2022-08-17T22:36:09.985Z,99405.06
2022-08-17T22:38:38.295Z,99397.22
2022-08-17T22:41:17.510Z,99398.31
2022-08-17T22:43:45.024Z,99402.25
2022-08-17T22:46:12.831Z,99413.72
2022-08-17T22:48:48.697Z,99411.78
2022-08-17T22:51:21.450Z,99406.66
2022-08-17T22:54:08.984Z,99405.13
2022-08-17T22:56:55.785Z,99401.09
2022-08-17T22:59:43.833Z,99410.63
2022-08-17T23:02:16.349Z,99407.50
2022-08-17T23:04:47.879Z,99408.47
2022-08-17T23:07:16.003Z,99409.50
2022-08-17T23:09:43.825Z,99403.66
2022-08-17T23:12:16.091Z,99409.84
2022-08-17T23:14:45.799Z,99409.09
2022-08-17T23:17:13.573Z,99391.03
2022-08-17T23:19:40.844Z,99411.09
2022-08-17T23:22:09.702Z,99407.63
2022-08-17T23:24:46.445Z,99400.09
2022-08-17T23:27:13.853Z,99400.84
2022-08-17T23:29:42.293Z,99402.41
2022-08-17T23:32:13.674Z,99403.34
2022-08-17T23:34:42.528Z,99396.56
2022-08-17T23:37:11.454Z,99387.28
2022-08-17T23:39:39.531Z,99397.25
2022-08-17T23:42:10.711Z,99409.38
2022-08-17T23:44:40.675Z,99401.47
2022-08-17T23:47:08.172Z,99398.38
2022-08-17T23:49:36.444Z,99414.97
2022-08-17T23:52:07.094Z,99411.53
2022-08-17T23:54:43.833Z,99414.63
2022-08-17T23:57:13.862Z,99420.63
2022-08-17T23:59:43.917Z,99426.84
